Flight Track Log - Related Links

Times and Time Zones

All times are in EDT time to prevent confusion due to time zone crossing. See the N317FL flight status page for this flight to view local times or setup timezone preferences in your user account.

Time Position Orientation Groundspeed Altitude Reporting Facility
EDT Latitude Longitude Course Direction KTS MPH feet Rate Location/Type
Thu 03:51:29 PM 38.0490 -78.2770 309° West 25,700  Level FlightAware ADS-B
Thu 03:51:49 PM 38.0400 -78.2460 110° East 395 455 26,400 1,400 Climbing FlightAware ADS-B
Thu 03:53:29 PM 38.0990 -77.9830 74° East 27,600 1,292 Climbing FlightAware ADS-B
Thu 03:53:59 PM 38.1230 -77.9350 58° Northeast 411 473 29,200 2,954 Climbing FlightAware ADS-B
Thu 03:54:34 PM 38.1600 -77.8610 58° Northeast 417 480 30,800 2,000 Climbing FlightAware ADS-B
Thu 03:55:29 PM 38.2190 -77.7430 58° Northeast 449 517 32,200 1,257 Climbing FlightAware ADS-B
Thu 03:56:19 PM 38.2740 -77.6300 58° Northeast 442 509 33,000 533 Climbing FlightAware ADS-B
Thu 03:56:59 PM 38.3180 -77.5420 57° Northeast 439 505 33,000  Level FlightAware ADS-B
Thu 03:57:34 PM 38.3540 -77.4680 58° Northeast 439 505 33,000  Level FlightAware ADS-B
Thu 03:58:20 PM 38.4147 -77.3445 58° Northeast 442 509 33,000  Level FlightAware ADS-B
Thu 03:58:54 PM 38.4512 -77.2700 58° Northeast 445 512 33,000  Level FlightAware ADS-B
Thu 03:59:24 PM 38.4843 -77.2022 58° Northeast 446 513 33,000  Level FlightAware ADS-B
Thu 03:59:57 PM 38.5196 -77.1298 58° Northeast 446 513 33,000  Level FlightAware ADS-B
Thu 04:00:29 PM 38.5440 -77.0790 58° Northeast 446 513 33,000  Level FlightAware ADS-B
Thu 04:00:33 PM 38.5589 -77.0490 58° Northeast 448 516 33,000  Level FlightAware ADS-B
Thu 04:01:09 PM 38.5979 -76.9684 58° Northeast 448 516 33,000  Level FlightAware ADS-B
Thu 04:01:39 PM 38.6313 -76.8993 58° Northeast 448 516 33,000  Level FlightAware ADS-B
Thu 04:02:12 PM 38.6675 -76.8245 58° Northeast 449 517 33,000  Level FlightAware ADS-B
Thu 04:02:44 PM 38.7029 -76.7538 57° Northeast 447 514 33,000  Level FlightAware ADS-B
Thu 04:03:07 PM 38.7362 -76.7099 46° Northeast 438 504 33,000  Level FlightAware ADS-B
Thu 04:03:43 PM 38.7894 -76.6491 42° Northeast 440 506 33,000  Level FlightAware ADS-B
Thu 04:04:15 PM 38.8380 -76.5927 42° Northeast 440 506 33,000 -507 Level FlightAware ADS-B
Thu 04:04:54 PM 38.8970 -76.5244 42° Northeast 435 501 32,400 -1,973 Descending FlightAware ADS-B
Thu 04:05:28 PM 38.9492 -76.4641 42° Northeast 443 510 30,600 -3,046 Descending FlightAware ADS-B
Thu 04:05:59 PM 38.9952 -76.4107 42° Northeast 441 507 29,100 -3,049 Descending FlightAware ADS-B
Thu 04:06:29 PM 39.0404 -76.3583 42° Northeast 439 505 27,500 -3,200 Descending FlightAware ADS-B
Thu 04:06:59 PM 39.0862 -76.3050 42° Northeast 436 502 25,900 -2,952 Descending FlightAware ADS-B
Thu 04:07:32 PM 39.1346 -76.2486 42° Northeast 429 494 24,400 -1,727 Descending FlightAware ADS-B
Thu 04:08:05 PM 39.1837 -76.1911 42° Northeast 422 486 24,000 -375 Descending FlightAware ADS-B
Thu 04:08:36 PM 39.2267 -76.1407 42° Northeast 414 476 24,000  Level FlightAware ADS-B
Thu 04:09:06 PM 39.2710 -76.0902 41° Northeast 420 483 24,000  Level FlightAware ADS-B
Thu 04:09:37 PM 39.3202 -76.0438 36° Northeast 422 486 24,000  Level FlightAware ADS-B
Thu 04:10:10 PM 39.3719 -75.9949 36° Northeast 421 484 24,000 -738 Level FlightAware ADS-B
Thu 04:10:42 PM 39.4221 -75.9476 36° Northeast 427 491 23,200 -1,781 Descending FlightAware ADS-B
Thu 04:11:14 PM 39.4733 -75.8990 36° Northeast 418 481 22,100 -1,935 Descending FlightAware ADS-B
Thu 04:11:44 PM 39.5040 -75.8700 36° Northeast 409 471 21,200 -2,710 Descending FlightAware ADS-B
Thu 04:11:45 PM 39.5208 -75.8539 36° Northeast 402 463 20,700 -3,375 Descending FlightAware ADS-B
Thu 04:12:16 PM 39.5660 -75.8109 36° Northeast 387 445 19,400 -2,516 Descending FlightAware ADS-B
Thu 04:12:47 PM 39.6097 -75.7698 36° Northeast 369 425 18,100 -2,613 Descending FlightAware ADS-B
Thu 04:13:18 PM 39.6515 -75.7318 35° Northeast 359 413 16,700 -2,557 Descending FlightAware ADS-B
Thu 04:13:48 PM 39.6921 -75.6946 35° Northeast 344 396 15,500 -2,323 Descending FlightAware ADS-B
Thu 04:14:20 PM 39.7334 -75.6566 35° Northeast 329 379 14,300 -2,118 Descending FlightAware ADS-B
Thu 04:14:56 PM 39.7763 -75.6171 35° Northeast 311 358 13,100 -1,364 Descending FlightAware ADS-B
Thu 04:15:26 PM 39.8118 -75.5846 35° Northeast 311 358 12,800 -290 Descending FlightAware ADS-B
Thu 04:15:58 PM 39.8490 -75.5503 35° Northeast 315 362 12,800  Level FlightAware ADS-B
Thu 04:16:28 PM 39.8848 -75.5173 35° Northeast 318 366 12,800  Level FlightAware ADS-B
Thu 04:16:58 PM 39.9216 -75.4832 35° Northeast 318 366 12,800  Level FlightAware ADS-B
Thu 04:17:28 PM 39.9578 -75.4496 35° Northeast 319 367 12,800  Level FlightAware ADS-B
Thu 04:17:59 PM 39.9945 -75.4155 35° Northeast 320 368 12,800  Level FlightAware ADS-B
Thu 04:18:29 PM 40.0309 -75.3817 35° Northeast 318 366 12,800  Level FlightAware ADS-B
Thu 04:18:59 PM 40.0671 -75.3480 35° Northeast 318 366 12,800  Level FlightAware ADS-B
Thu 04:19:30 PM 40.1042 -75.3134 35° Northeast 317 365 12,800  Level FlightAware ADS-B
Thu 04:20:02 PM 40.1423 -75.2778 36° Northeast 316 364 12,800 -581 Level FlightAware ADS-B
Thu 04:20:32 PM 40.1774 -75.2451 35° Northeast 306 352 12,200 -1,258 Descending FlightAware ADS-B
Thu 04:21:04 PM 40.2142 -75.2108 35° Northeast 308 354 11,500 -1,333 Descending FlightAware ADS-B
Thu 04:21:35 PM 40.2509 -75.1765 35° Northeast 307 353 10,800 -1,525 Descending FlightAware ADS-B
Thu 04:22:03 PM 40.2828 -75.1466 36° Northeast 309 356 10,000 -1,773 Descending FlightAware ADS-B
Thu 04:22:19 PM 40.3013 -75.1292 36° Northeast 305 351 9,500 -1,600 Descending FlightAware ADS-B
Thu 04:22:33 PM 40.3167 -75.1146 36° Northeast 299 344 9,200 -1,263 Descending FlightAware ADS-B
Thu 04:22:38 PM 40.3221 -75.1090 38° Northeast 300 345 9,100 -1,500 Descending FlightAware ADS-B
Thu 04:22:45 PM 40.3296 -75.0995 44° Northeast 300 345 8,900 -1,826 Descending FlightAware ADS-B
Thu 04:23:01 PM 40.3445 -75.0778 48° Northeast 297 342 8,400 -1,742 Descending FlightAware ADS-B
Thu 04:23:16 PM 40.3585 -75.0582 47° Northeast 294 338 8,000 -1,548 Descending FlightAware ADS-B
Thu 04:23:32 PM 40.3728 -75.0382 47° Northeast 291 335 7,600 -1,500 Descending FlightAware ADS-B
Thu 04:23:48 PM 40.3874 -75.0178 47° Northeast 288 331 7,200 -1,548 Descending FlightAware ADS-B
Thu 04:24:03 PM 40.4015 -74.9981 47° Northeast 285 328 6,800 -1,400 Descending FlightAware ADS-B
Thu 04:24:18 PM 40.4152 -74.9788 47° Northeast 282 325 6,500 -1,500 Descending FlightAware ADS-B
Thu 04:24:35 PM 40.4301 -74.9579 47° Northeast 280 322 6,000 -1,636 Descending FlightAware ADS-B
Thu 04:24:51 PM 40.4443 -74.9379 47° Northeast 280 322 5,600 -1,355 Descending FlightAware ADS-B
Thu 04:25:06 PM 40.4578 -74.9190 47° Northeast 279 321 5,300 -1,371 Descending FlightAware ADS-B
Thu 04:25:26 PM 40.4748 -74.8949 47° Northeast 275 316 4,800 -1,500 Descending FlightAware ADS-B
Thu 04:25:42 PM 40.4883 -74.8759 47° Northeast 274 315 4,400 -1,000 Descending FlightAware ADS-B
Thu 04:26:26 PM 40.5263 -74.8221 47° Northeast 267 307 3,800 -600 Descending FlightAware ADS-B
Thu 04:26:42 PM 40.5399 -74.8028 47° Northeast 272 313 3,800  Level FlightAware ADS-B
Thu 04:26:59 PM 40.5550 -74.7816 47° Northeast 277 319 3,800  Level FlightAware ADS-B
Thu 04:27:08 PM 40.5635 -74.7721 40° Northeast 276 318 3,800  Level FlightAware ADS-B
Thu 04:27:11 PM 40.5671 -74.7698 26° Northeast 274 315 3,800  Level FlightAware ADS-B
Thu 04:27:20 PM 40.5778 -74.7643 21° North 270 311 3,800  Level FlightAware ADS-B
Thu 04:27:36 PM 40.5953 -74.7560 20° North 266 306 3,800  Level FlightAware ADS-B
Thu 04:27:51 PM 40.6133 -74.7473 20° North 263 303 3,800  Level FlightAware ADS-B
Thu 04:28:10 PM 40.6341 -74.7373 20° North 262 302 3,800  Level FlightAware ADS-B
Thu 04:28:25 PM 40.6516 -74.7290 20° North 262 302 3,800  Level FlightAware ADS-B
Thu 04:28:42 PM 40.6711 -74.7197 20° North 261 300 3,800  Level FlightAware ADS-B
Thu 04:29:08 PM 40.7004 -74.7058 20° North 263 303 3,800  Level FlightAware ADS-B
Thu 04:29:38 PM 40.7341 -74.6894 20° North 240 276 3,800  Level FlightAware ADS-B
Thu 04:30:24 PM 40.7780 -74.6680 20° North 222 255 3,800  Level FlightAware ADS-B
Thu 04:30:49 PM 40.8010 -74.6570 20° North 218 251 3,800  Level FlightAware ADS-B
Thu 04:31:19 PM 40.8280 -74.6440 20° North 217 250 3,800  Level FlightAware ADS-B
Thu 04:31:29 PM 40.8370 -74.6400 19° North 217 250 3,800  Level FlightAware ADS-B
Thu 04:31:59 PM 40.8660 -74.6250 21° North 218 251 3,800  Level FlightAware ADS-B
Thu 04:32:24 PM 40.8910 -74.6130 20° North 222 255 3,800  Level FlightAware ADS-B
Thu 04:32:54 PM 40.9180 -74.6000 20° North 224 258 3,800  Level FlightAware ADS-B
Thu 04:33:24 PM 40.9510 -74.5840 20° North 225 259 3,800  Level FlightAware ADS-B
Thu 04:33:44 PM 40.9700 -74.5750 20° North 223 257 3,800  Level FlightAware ADS-B
Thu 04:34:19 PM 41.0030 -74.5600 19° North 224 258 3,800 -254 Level FlightAware ADS-B
Thu 04:39:38 PM 41.0465 -74.1657 82° East 217 250 2,300 -323 Descending FlightAware ADS-B
Thu 04:39:53 PM 41.0436 -74.1457 101° East 216 249 2,000 -968 Descending FlightAware ADS-B
Thu 04:40:09 PM 41.0407 -74.1263 101° East 210 242 1,800 -400 Descending FlightAware ADS-B
Thu 04:40:23 PM 41.0381 -74.1082 101° East 195 224 1,800  Level FlightAware ADS-B
Thu 04:40:44 PM 41.0343 -74.0849 102° East 188 216 1,800  Level FlightAware ADS-B
Thu 04:40:47 PM 41.0333 -74.0818 113° Southeast 183 211 1,800  Level FlightAware ADS-B
Thu 04:41:00 PM 41.0259 -74.0720 135° Southeast 178 205 1,800  Level FlightAware ADS-B
Thu 04:41:03 PM 41.0237 -74.0700 146° Southeast 176 203 1,800  Level FlightAware ADS-B
Thu 04:41:17 PM 41.0142 -74.0613 145° Southeast 180 207 1,800  Level FlightAware ADS-B
Thu 04:41:33 PM 41.0034 -74.0512 145° Southeast 182 209 1,800  Level FlightAware ADS-B
Thu 04:41:37 PM 41.0002 -74.0491 154° Southeast 182 209 1,800  Level FlightAware ADS-B
Thu 04:41:44 PM 40.9948 -74.0474 167° South 183 211 1,800  Level FlightAware ADS-B
Thu 04:41:51 PM 40.9882 -74.0474 180° South 184 212 1,800  Level FlightAware ADS-B
Thu 04:41:56 PM 40.9840 -74.0481 187° South 183 211 1,800  Level FlightAware ADS-B
Thu 04:42:08 PM 40.9742 -74.0498 187° South 184 212 1,800  Level FlightAware ADS-B
Thu 04:42:24 PM 40.9612 -74.0513 185° South 174 200 1,800 -207 Level FlightAware ADS-B
Thu 04:42:37 PM 40.9509 -74.0521 183° South 159 183 1,700 -720 Descending FlightAware ADS-B
Thu 04:42:49 PM 40.9420 -74.0523 181° South 157 181 1,500 -857 Descending FlightAware ADS-B
Thu 04:42:58 PM 40.9358 -74.0527 183° South 154 177 1,400 -750 Descending FlightAware ADS-B
Thu 04:43:13 PM 40.9253 -74.0537 184° South 146 168 1,200 -462 Descending FlightAware ADS-B
Thu 04:43:24 PM 40.9186 -74.0543 184° South 136 157 1,200 -353 Level FlightAware ADS-B
Thu 04:43:30 PM 40.9147 -74.0544 181° South 133 153 1,100 -923 Descending FlightAware ADS-B
Thu 04:43:37 PM 40.9102 -74.0546 182° South 134 154 1,000 -1,200 Descending FlightAware ADS-B
Thu 04:43:45 PM 40.9052 -74.0551 184° South 133 153 800 -1,200 Descending FlightAware ADS-B
Thu 04:43:52 PM 40.9006 -74.0557 186° South 133 153 700 -750 Descending FlightAware ADS-B
Thu 04:44:09 PM 40.8909 -74.0565 184° South 128 147 500 -563 Descending FlightAware ADS-B
Thu 04:44:24 PM 40.8816 -74.0571 183° South 127 146 400 -480 Descending FlightAware ADS-B
Thu 04:44:34 PM 40.8760 -74.0576 184° South 125 144 300 -706 Descending FlightAware ADS-B
Thu 04:44:41 PM 40.8719 -74.0580 184° South 123 142 200 -857 Descending FlightAware ADS-B

Login

Don't have an account? Register now (free) for customized features, flight alerts, and more!